createdAt,value
2019-01-14T00:01:08.865Z,93.695068
2019-01-14T00:02:18.479Z,94.110107
2019-01-14T00:03:28.162Z,94.110107
2019-01-14T00:04:37.746Z,94.006348
2019-01-14T00:05:47.498Z,94.110107
2019-01-14T00:06:57.165Z,93.798828
2019-01-14T00:08:06.781Z,93.591309
2019-01-14T00:09:23.000Z,93.383789
2019-01-14T00:10:26.858Z,93.280029
2019-01-14T00:11:36.408Z,93.487549
2019-01-14T00:12:45.932Z,93.280029
2019-01-14T00:13:55.472Z,93.591309
2019-01-14T00:15:05.021Z,93.280029
2019-01-14T00:16:14.572Z,93.07251
2019-01-14T00:17:24.126Z,92.86499
2019-01-14T00:18:33.687Z,92.86499
2019-01-14T00:19:43.232Z,92.96875
2019-01-14T00:20:52.780Z,92.76123
2019-01-14T00:22:02.350Z,92.242432
2019-01-14T00:23:11.871Z,92.449951
2019-01-14T00:24:21.395Z,92.449951
2019-01-14T00:25:30.917Z,92.553711
2019-01-14T00:26:40.487Z,92.657471
2019-01-14T00:27:50.046Z,92.86499
2019-01-14T00:28:59.621Z,93.17627
2019-01-14T00:30:09.168Z,93.383789
2019-01-14T00:31:18.707Z,93.695068
2019-01-14T00:32:28.254Z,93.383789
2019-01-14T00:33:37.795Z,93.487549
2019-01-14T00:34:47.338Z,93.17627
2019-01-14T00:35:57.013Z,93.383789
2019-01-14T00:37:06.565Z,93.17627
2019-01-14T00:38:16.117Z,93.07251
2019-01-14T00:39:25.670Z,92.86499
2019-01-14T00:40:36.176Z,92.303467
2019-01-14T00:41:45.711Z,91.784668
2019-01-14T00:42:55.238Z,92.199707
2019-01-14T00:44:04.782Z,92.346191
2019-01-14T00:45:14.306Z,92.657471
2019-01-14T00:46:23.833Z,92.657471
2019-01-14T00:47:33.372Z,92.86499
2019-01-14T00:48:42.899Z,93.383789
2019-01-14T00:49:52.445Z,93.695068
2019-01-14T00:51:02.026Z,94.213867
2019-01-14T00:52:11.583Z,93.695068
2019-01-14T00:53:21.111Z,93.695068
2019-01-14T00:54:30.643Z,93.945312
2019-01-14T00:55:40.191Z,94.006348
2019-01-14T00:56:49.772Z,93.634033
2019-01-14T00:57:59.330Z,93.841553
2019-01-14T00:59:08.864Z,93.530273
2019-01-14T01:00:18.408Z,94.049072
2019-01-14T01:01:27.981Z,93.945312
2019-01-14T01:02:37.492Z,94.464111
2019-01-14T01:03:47.026Z,95.233154
2019-01-14T01:04:56.588Z,95.544434
2019-01-14T01:06:06.146Z,95.233154
2019-01-14T01:07:15.716Z,95.959473
2019-01-14T01:08:25.311Z,96.063232
2019-01-14T01:09:34.877Z,96.063232
2019-01-14T01:10:44.474Z,96.374512
2019-01-14T01:11:54.026Z,96.624756
2019-01-14T01:13:03.676Z,96.728516
2019-01-14T01:14:13.214Z,96.520996
2019-01-14T01:15:22.758Z,96.313477
2019-01-14T01:16:32.284Z,95.379639
2019-01-14T01:17:41.846Z,94.9646
2019-01-14T01:18:51.376Z,95.318604
2019-01-14T01:20:00.960Z,95.629883
2019-01-14T01:21:10.510Z,95.422363
2019-01-14T01:22:20.148Z,95.318604
2019-01-14T01:23:29.679Z,96.148682
2019-01-14T01:24:39.264Z,96.044922
2019-01-14T01:25:48.824Z,96.044922
2019-01-14T01:26:58.411Z,96.30127
2019-01-14T01:28:07.955Z,96.19751
2019-01-14T01:29:17.489Z,96.30127
2019-01-14T01:30:27.032Z,96.716309
2019-01-14T01:31:36.586Z,96.716309
2019-01-14T01:32:46.153Z,96.30127
2019-01-14T01:33:55.706Z,96.405029
2019-01-14T01:35:05.231Z,96.508789
2019-01-14T01:36:14.786Z,96.508789
2019-01-14T01:37:24.342Z,96.30127
2019-01-14T01:38:33.896Z,96.508789
2019-01-14T01:39:43.449Z,96.405029
2019-01-14T01:40:53.026Z,96.09375
2019-01-14T01:42:02.602Z,95.776367
2019-01-14T01:43:12.140Z,96.09375
2019-01-14T01:44:21.678Z,95.88623
2019-01-14T01:45:31.221Z,95.672607
2019-01-14T01:46:40.732Z,95.776367
2019-01-14T01:47:50.322Z,95.361328
2019-01-14T01:48:59.921Z,95.568848
2019-01-14T01:50:09.439Z,95.568848
2019-01-14T01:51:19.000Z,95.465088
2019-01-14T01:52:29.781Z,95.568848
2019-01-14T01:53:38.140Z,95.361328
2019-01-14T01:54:47.689Z,95.404053
2019-01-14T01:55:57.209Z,95.617676
2019-01-14T01:57:07.752Z,95.721436
2019-01-14T01:58:17.315Z,95.404053
2019-01-14T01:59:26.900Z,94.989014
2019-01-14T02:00:36.471Z,95.404053
2019-01-14T02:01:46.039Z,95.513916
2019-01-14T02:02:55.621Z,95.513916
2019-01-14T02:04:05.196Z,95.513916
2019-01-14T02:05:14.751Z,95.721436
2019-01-14T02:06:24.285Z,96.136475
2019-01-14T02:07:33.903Z,95.825195
2019-01-14T02:08:43.523Z,95.928955
2019-01-14T02:09:53.063Z,95.617676
2019-01-14T02:11:02.616Z,95.513916
2019-01-14T02:12:12.214Z,95.404053
2019-01-14T02:13:21.747Z,95.404053
2019-01-14T02:14:31.269Z,95.092773
2019-01-14T02:15:40.800Z,95.300293
2019-01-14T02:16:50.327Z,95.513916
2019-01-14T02:17:59.898Z,95.513916
2019-01-14T02:19:09.462Z,95.928955
2019-01-14T02:20:19.003Z,95.721436
2019-01-14T02:21:28.543Z,95.404053
2019-01-14T02:22:38.102Z,95.513916
2019-01-14T02:23:47.672Z,95.404053
2019-01-14T02:24:57.195Z,95.513916
2019-01-14T02:26:06.719Z,95.452881
2019-01-14T02:27:16.299Z,95.76416
2019-01-14T02:28:25.878Z,95.97168
2019-01-14T02:29:35.410Z,95.6604
2019-01-14T02:30:44.943Z,95.556641
2019-01-14T02:31:54.483Z,95.76416
2019-01-14T02:33:04.062Z,95.349121
2019-01-14T02:34:13.610Z,95.245361
2019-01-14T02:35:23.158Z,94.824219
2019-01-14T02:36:32.713Z,95.349121
2019-01-14T02:37:42.242Z,95.245361
2019-01-14T02:38:51.799Z,95.452881
2019-01-14T02:40:01.327Z,95.245361
2019-01-14T02:41:10.871Z,95.245361
2019-01-14T02:42:20.412Z,94.824219
2019-01-14T02:43:29.988Z,95.196533
2019-01-14T02:44:39.524Z,94.885254
2019-01-14T02:45:50.053Z,94.885254
2019-01-14T02:46:59.590Z,94.366455
2019-01-14T02:48:09.126Z,94.470215
2019-01-14T02:49:18.700Z,94.366455
2019-01-14T02:50:28.251Z,93.847656
2019-01-14T02:51:37.794Z,94.262695
2019-01-14T02:52:47.319Z,94.366455
2019-01-14T02:53:56.895Z,94.366455
2019-01-14T02:55:06.454Z,94.30542
2019-01-14T02:56:16.017Z,93.682861
2019-01-14T02:57:25.569Z,93.786621
2019-01-14T02:58:35.135Z,93.267822
2019-01-14T02:59:44.686Z,93.579102
2019-01-14T03:00:54.218Z,92.803955
2019-01-14T03:02:03.797Z,93.115234
2019-01-14T03:03:13.395Z,93.054199
2019-01-14T03:04:22.978Z,92.84668
2019-01-14T03:05:32.536Z,93.157959
2019-01-14T03:06:42.152Z,93.054199
2019-01-14T03:07:51.755Z,92.388916
2019-01-14T03:09:01.314Z,93.011475
2019-01-14T03:10:10.869Z,92.388916
2019-01-14T03:11:20.497Z,92.907715
2019-01-14T03:12:30.085Z,93.432617
2019-01-14T03:13:39.763Z,93.579102
2019-01-14T03:14:49.315Z,93.994141
2019-01-14T03:15:58.940Z,93.994141
2019-01-14T03:17:08.506Z,94.0979
2019-01-14T03:18:18.078Z,94.20166
2019-01-14T03:19:27.647Z,93.890381
2019-01-14T03:20:37.246Z,93.890381
2019-01-14T03:21:46.867Z,93.682861
2019-01-14T03:22:56.451Z,94.20166
2019-01-14T03:24:06.062Z,92.950439
2019-01-14T03:25:15.611Z,92.492676
2019-01-14T03:26:25.148Z,92.077637
2019-01-14T03:27:34.668Z,92.492676
2019-01-14T03:28:44.270Z,91.247559
2019-01-14T03:29:53.958Z,91.247559
2019-01-14T03:31:03.566Z,91.662598
2019-01-14T03:32:13.111Z,90.826416
2019-01-14T03:33:22.776Z,90.722656
2019-01-14T03:34:32.387Z,90.515137
2019-01-14T03:35:41.969Z,90.618896
2019-01-14T03:36:51.520Z,90.722656
2019-01-14T03:38:01.146Z,90.930176
2019-01-14T03:39:10.682Z,90.203857
2019-01-14T03:40:20.223Z,90.307617
2019-01-14T03:41:29.809Z,90.618896
2019-01-14T03:42:39.417Z,90.411377
2019-01-14T03:43:48.986Z,90.411377
2019-01-14T03:44:58.571Z,90.826416
2019-01-14T03:46:08.113Z,90.930176
2019-01-14T03:47:17.699Z,90.722656
2019-01-14T03:48:27.287Z,91.040039
2019-01-14T03:49:36.841Z,90.930176
2019-01-14T03:50:46.489Z,91.601562
2019-01-14T03:51:56.072Z,91.809082
2019-01-14T03:53:05.720Z,90.930176
2019-01-14T03:54:15.327Z,91.18042
2019-01-14T03:55:24.987Z,91.497803
2019-01-14T03:56:34.485Z,91.601562
2019-01-14T03:57:44.125Z,91.912842
2019-01-14T03:58:53.774Z,91.809082
2019-01-14T04:00:03.444Z,90.722656
2019-01-14T04:01:13.039Z,90.826416
2019-01-14T04:02:22.742Z,90.826416
2019-01-14T04:03:32.366Z,91.040039
2019-01-14T04:04:42.108Z,91.394043
2019-01-14T04:05:51.625Z,91.18042
2019-01-14T04:07:01.219Z,91.18042
2019-01-14T04:08:11.770Z,91.28418
2019-01-14T04:09:21.346Z,91.601562
2019-01-14T04:10:30.955Z,91.394043
2019-01-14T04:11:40.527Z,91.18042
2019-01-14T04:12:50.122Z,91.497803
2019-01-14T04:13:59.696Z,91.809082
2019-01-14T04:15:09.287Z,91.912842
2019-01-14T04:16:18.831Z,91.497803
2019-01-14T04:17:28.388Z,92.016602
2019-01-14T04:18:37.978Z,91.809082
2019-01-14T04:19:47.624Z,92.016602
2019-01-14T04:20:57.260Z,92.431641
2019-01-14T04:22:06.798Z,92.431641
2019-01-14T04:23:16.369Z,92.431641
2019-01-14T04:24:25.974Z,92.84668
2019-01-14T04:25:35.559Z,92.74292
2019-01-14T04:26:45.157Z,93.054199
2019-01-14T04:27:54.750Z,92.74292
2019-01-14T04:29:04.291Z,93.157959
2019-01-14T04:30:13.876Z,93.475342
2019-01-14T04:31:23.466Z,93.621826
2019-01-14T04:32:33.023Z,93.310547
2019-01-14T04:33:41.590Z,93.725586
2019-01-14T04:34:51.202Z,93.096924
2019-01-14T04:36:00.792Z,93.157959
2019-01-14T04:37:10.334Z,93.371582
2019-01-14T04:38:20.915Z,93.371582
2019-01-14T04:39:30.497Z,92.224121
2019-01-14T04:40:40.075Z,92.224121
2019-01-14T04:41:49.628Z,92.016602
2019-01-14T04:42:59.220Z,91.912842
2019-01-14T04:44:08.797Z,92.431641
2019-01-14T04:45:18.362Z,92.5354
2019-01-14T04:46:27.919Z,91.601562
2019-01-14T04:47:37.508Z,92.224121
2019-01-14T04:48:47.087Z,91.601562
2019-01-14T04:49:56.677Z,91.601562
2019-01-14T04:51:06.262Z,91.809082
2019-01-14T04:52:15.822Z,91.809082
2019-01-14T04:53:25.388Z,91.18042
2019-01-14T04:54:34.945Z,91.28418
2019-01-14T04:55:44.508Z,91.18042
2019-01-14T04:56:54.118Z,90.869141
2019-01-14T04:58:03.648Z,91.28418
2019-01-14T04:59:13.219Z,91.394043
2019-01-14T05:00:22.808Z,91.28418
2019-01-14T05:01:32.361Z,90.039062
2019-01-14T05:02:41.900Z,89.727783
2019-01-14T05:03:51.429Z,89.373779
2019-01-14T05:05:00.937Z,89.685059
2019-01-14T05:06:10.513Z,89.306641
2019-01-14T05:07:20.083Z,89.373779
2019-01-14T05:08:30.644Z,89.27002
2019-01-14T05:09:40.223Z,89.27002
2019-01-14T05:10:49.786Z,89.373779
2019-01-14T05:11:59.344Z,89.520264
2019-01-14T05:13:08.882Z,89.935303
2019-01-14T05:14:18.491Z,89.4104
2019-01-14T05:15:28.125Z,89.16626
2019-01-14T05:16:37.677Z,88.745117
2019-01-14T05:17:47.247Z,88.330078
2019-01-14T05:18:56.792Z,88.122559
2019-01-14T05:20:06.379Z,88.018799
2019-01-14T05:21:15.927Z,87.811279
2019-01-14T05:22:25.464Z,88.330078
2019-01-14T05:23:35.043Z,88.122559
2019-01-14T05:24:44.648Z,88.537598
2019-01-14T05:25:54.284Z,88.433838
2019-01-14T05:27:03.938Z,88.330078
2019-01-14T05:28:13.519Z,88.122559
2019-01-14T05:29:23.054Z,88.641357
2019-01-14T05:30:32.627Z,88.330078
2019-01-14T05:31:42.156Z,88.537598
2019-01-14T05:32:51.757Z,88.95874
2019-01-14T05:34:01.390Z,88.85498
2019-01-14T05:35:10.919Z,88.95874
2019-01-14T05:36:20.474Z,89.099121
2019-01-14T05:37:37.152Z,89.202881
2019-01-14T05:38:40.726Z,89.202881
2019-01-14T05:39:50.319Z,88.995361
2019-01-14T05:40:59.938Z,88.787842
2019-01-14T05:42:09.532Z,88.891602
2019-01-14T05:43:19.086Z,89.202881
2019-01-14T05:44:28.743Z,89.4104
2019-01-14T05:45:38.420Z,89.520264
2019-01-14T05:46:48.009Z,89.4104
2019-01-14T05:47:57.572Z,89.831543
2019-01-14T05:49:07.129Z,90.142822
2019-01-14T05:50:16.680Z,90.246582
2019-01-14T05:51:26.365Z,90.350342
2019-01-14T05:52:35.993Z,90.454102
2019-01-14T05:53:45.738Z,90.557861
2019-01-14T05:54:55.450Z,91.18042
2019-01-14T05:56:05.096Z,91.601562
2019-01-14T05:57:14.796Z,91.851807
2019-01-14T05:58:24.485Z,91.851807
2019-01-14T05:59:34.171Z,92.163086
2019-01-14T06:00:43.836Z,92.370605
2019-01-14T06:01:53.544Z,92.578125
2019-01-14T06:03:03.329Z,92.163086
2019-01-14T06:04:12.921Z,92.578125
2019-01-14T06:05:22.524Z,92.474365
2019-01-14T06:06:32.142Z,92.578125
2019-01-14T06:07:44.925Z,92.163086
2019-01-14T06:08:51.250Z,91.955566
2019-01-14T06:10:00.815Z,92.266846
2019-01-14T06:11:10.398Z,91.851807
2019-01-14T06:12:19.923Z,92.059326
2019-01-14T06:13:29.503Z,92.370605
2019-01-14T06:14:39.048Z,92.578125
2019-01-14T06:15:48.669Z,92.578125
2019-01-14T06:16:58.193Z,92.578125
2019-01-14T06:18:07.782Z,92.370605
2019-01-14T06:19:17.450Z,92.266846
2019-01-14T06:20:27.016Z,92.266846
2019-01-14T06:21:36.650Z,92.474365
2019-01-14T06:22:47.239Z,92.578125
2019-01-14T06:23:56.771Z,92.785645
2019-01-14T06:25:05.327Z,92.474365
2019-01-14T06:26:14.890Z,92.474365
2019-01-14T06:27:24.423Z,92.681885
2019-01-14T06:28:34.006Z,92.578125
2019-01-14T06:29:43.560Z,92.370605
2019-01-14T06:30:54.182Z,92.163086
2019-01-14T06:32:03.767Z,92.266846
2019-01-14T06:33:13.321Z,92.266846
2019-01-14T06:34:22.888Z,92.266846
2019-01-14T06:35:32.497Z,92.266846
2019-01-14T06:36:42.036Z,92.266846
2019-01-14T06:37:52.391Z,92.370605
2019-01-14T06:39:01.200Z,92.474365
2019-01-14T06:40:10.805Z,92.370605
2019-01-14T06:41:20.446Z,92.370605
2019-01-14T06:42:29.992Z,92.163086
2019-01-14T06:43:40.566Z,91.748047
2019-01-14T06:44:50.107Z,92.163086
2019-01-14T06:45:59.747Z,92.059326
2019-01-14T06:47:09.291Z,91.748047
2019-01-14T06:48:18.867Z,91.497803
2019-01-14T06:49:28.466Z,91.394043
2019-01-14T06:50:38.024Z,91.601562
2019-01-14T06:51:47.636Z,91.497803
2019-01-14T06:52:57.243Z,91.07666
2019-01-14T06:54:06.847Z,91.07666
2019-01-14T06:55:16.375Z,91.18042
2019-01-14T06:56:25.964Z,91.07666
2019-01-14T06:57:35.494Z,90.869141
2019-01-14T06:58:45.061Z,90.557861
2019-01-14T06:59:54.618Z,90.765381
2019-01-14T07:01:04.177Z,90.765381
2019-01-14T07:02:13.730Z,90.9729
2019-01-14T07:03:23.258Z,90.765381
2019-01-14T07:04:32.816Z,90.765381
2019-01-14T07:05:42.362Z,90.557861
2019-01-14T07:06:51.896Z,90.246582
2019-01-14T07:08:01.448Z,90.557861
2019-01-14T07:09:11.015Z,90.454102
2019-01-14T07:10:20.541Z,90.869141
2019-01-14T07:11:30.106Z,90.765381
2019-01-14T07:12:39.661Z,91.18042
2019-01-14T07:13:49.212Z,91.07666
2019-01-14T07:14:58.833Z,91.07666
2019-01-14T07:16:08.392Z,91.705322
2019-01-14T07:17:17.939Z,91.394043
2019-01-14T07:18:28.484Z,91.601562
2019-01-14T07:19:38.010Z,91.394043
2019-01-14T07:20:47.636Z,91.28418
2019-01-14T07:21:58.211Z,91.809082
2019-01-14T07:23:08.276Z,91.07666
2019-01-14T07:24:17.291Z,91.601562
2019-01-14T07:25:26.845Z,91.601562
2019-01-14T07:26:36.419Z,91.601562
2019-01-14T07:27:44.983Z,91.705322
2019-01-14T07:28:54.517Z,91.912842
2019-01-14T07:30:04.050Z,92.224121
2019-01-14T07:31:13.652Z,92.016602
2019-01-14T07:32:23.191Z,91.809082
2019-01-14T07:33:32.726Z,92.016602
2019-01-14T07:34:42.249Z,92.74292
2019-01-14T07:35:51.813Z,92.224121
2019-01-14T07:37:01.386Z,92.327881
2019-01-14T07:38:10.930Z,92.016602
2019-01-14T07:39:20.491Z,91.809082
2019-01-14T07:40:30.039Z,92.74292
2019-01-14T07:41:39.575Z,92.5354
2019-01-14T07:42:49.131Z,92.431641
2019-01-14T07:43:58.670Z,92.63916
2019-01-14T07:45:08.210Z,92.889404
2019-01-14T07:46:17.872Z,92.785645
2019-01-14T07:47:27.497Z,92.993164
2019-01-14T07:48:37.023Z,93.200684
2019-01-14T07:49:46.598Z,92.785645
2019-01-14T07:50:56.122Z,92.681885
2019-01-14T07:52:05.649Z,92.993164
2019-01-14T07:53:15.185Z,92.681885
2019-01-14T07:54:24.742Z,92.785645
2019-01-14T07:55:34.312Z,93.200684
2019-01-14T07:56:43.894Z,92.785645
2019-01-14T07:57:53.451Z,92.785645
2019-01-14T07:59:02.972Z,92.681885
2019-01-14T08:00:12.512Z,92.785645
2019-01-14T08:01:22.060Z,92.578125
2019-01-14T08:02:31.614Z,92.785645
2019-01-14T08:03:41.203Z,92.889404
2019-01-14T08:04:50.759Z,92.889404
2019-01-14T08:06:00.334Z,92.681885
2019-01-14T08:07:09.869Z,92.578125
2019-01-14T08:08:19.527Z,92.681885
2019-01-14T08:09:29.172Z,92.163086
2019-01-14T08:10:38.871Z,92.120361
2019-01-14T08:11:48.613Z,92.059326
2019-01-14T08:12:58.265Z,92.016602
2019-01-14T08:14:07.949Z,92.327881
2019-01-14T08:15:17.688Z,92.578125
2019-01-14T08:16:27.400Z,93.200684
2019-01-14T08:17:37.250Z,92.370605
2019-01-14T08:18:47.033Z,92.059326
2019-01-14T08:19:56.771Z,92.266846
2019-01-14T08:21:06.439Z,92.370605
2019-01-14T08:22:16.119Z,92.370605
2019-01-14T08:23:25.786Z,92.785645
2019-01-14T08:24:35.488Z,92.785645
2019-01-14T08:25:45.125Z,92.993164
2019-01-14T08:26:54.805Z,93.310547
2019-01-14T08:28:04.596Z,92.993164
2019-01-14T08:29:14.229Z,92.889404
2019-01-14T08:30:23.906Z,93.310547
2019-01-14T08:31:33.565Z,92.474365
2019-01-14T08:32:43.237Z,93.414307
2019-01-14T08:33:52.867Z,93.725586
2019-01-14T08:35:02.552Z,92.474365
2019-01-14T08:36:12.265Z,92.681885
2019-01-14T08:37:21.969Z,92.785645
2019-01-14T08:38:31.601Z,93.096924
2019-01-14T08:39:41.232Z,92.889404
2019-01-14T08:40:50.853Z,92.84668
2019-01-14T08:42:00.503Z,92.63916
2019-01-14T08:43:10.174Z,92.431641
2019-01-14T08:44:19.786Z,92.84668
2019-01-14T08:45:29.417Z,92.84668
2019-01-14T08:46:39.085Z,92.431641
2019-01-14T08:47:48.675Z,92.327881
2019-01-14T08:48:58.342Z,92.431641
2019-01-14T08:50:07.922Z,92.120361
2019-01-14T08:51:17.450Z,92.327881
2019-01-14T08:52:27.019Z,91.394043
2019-01-14T08:53:37.164Z,91.497803
2019-01-14T08:54:47.415Z,91.601562
2019-01-14T08:55:57.058Z,91.558838
2019-01-14T08:57:06.616Z,91.351318
2019-01-14T08:58:16.158Z,91.662598
2019-01-14T08:59:25.707Z,92.181396
2019-01-14T09:00:35.257Z,91.809082
2019-01-14T09:01:44.781Z,92.077637
2019-01-14T09:02:54.380Z,91.558838
2019-01-14T09:04:03.913Z,91.247559
2019-01-14T09:05:14.256Z,91.040039
2019-01-14T09:06:23.783Z,90.930176
2019-01-14T09:07:33.353Z,91.040039
2019-01-14T09:08:42.925Z,91.558838
2019-01-14T09:09:52.436Z,91.455078
2019-01-14T09:11:01.979Z,90.930176
2019-01-14T09:12:11.649Z,91.040039
2019-01-14T09:13:21.243Z,90.826416
2019-01-14T09:14:30.801Z,91.558838
2019-01-14T09:15:40.659Z,90.930176
2019-01-14T09:16:50.306Z,90.930176
2019-01-14T09:18:02.739Z,91.040039
2019-01-14T09:19:11.492Z,91.662598
2019-01-14T09:20:21.054Z,91.558838
2019-01-14T09:21:30.693Z,92.077637
2019-01-14T09:22:40.350Z,91.766357
2019-01-14T09:23:49.896Z,92.285156
2019-01-14T09:24:59.429Z,91.497803
2019-01-14T09:26:09.049Z,91.809082
2019-01-14T09:27:18.738Z,92.016602
2019-01-14T09:28:28.371Z,91.662598
2019-01-14T09:29:37.985Z,91.766357
2019-01-14T09:30:47.529Z,91.973877
2019-01-14T09:31:57.089Z,92.077637
2019-01-14T09:33:06.704Z,91.870117
2019-01-14T09:34:16.475Z,91.870117
2019-01-14T09:35:26.008Z,92.181396
2019-01-14T09:36:35.555Z,92.327881
2019-01-14T09:37:45.154Z,92.74292
2019-01-14T09:38:54.699Z,93.157959
2019-01-14T09:40:04.256Z,93.267822
2019-01-14T09:41:13.810Z,93.157959
2019-01-14T09:42:27.915Z,92.950439
2019-01-14T09:43:34.705Z,92.5354
2019-01-14T09:44:44.352Z,92.5354
2019-01-14T09:45:53.897Z,93.475342
2019-01-14T09:47:03.450Z,92.74292
2019-01-14T09:48:13.015Z,92.492676
2019-01-14T09:49:22.542Z,91.766357
2019-01-14T09:50:32.083Z,91.870117
2019-01-14T09:51:41.611Z,92.492676
2019-01-14T09:52:51.177Z,93.011475
2019-01-14T09:54:01.713Z,92.74292
2019-01-14T09:55:11.236Z,92.016602
2019-01-14T09:56:20.787Z,92.74292
2019-01-14T09:57:30.322Z,92.74292
2019-01-14T09:58:39.852Z,92.63916
2019-01-14T09:59:49.391Z,92.181396
2019-01-14T10:00:58.950Z,91.870117
2019-01-14T10:02:09.484Z,92.181396
2019-01-14T10:03:19.031Z,91.662598
2019-01-14T10:04:28.555Z,92.016602
2019-01-14T10:05:38.075Z,92.120361
2019-01-14T10:06:47.607Z,91.705322
2019-01-14T10:07:57.156Z,92.327881
2019-01-14T10:09:06.670Z,92.431641
2019-01-14T10:10:16.210Z,92.327881
2019-01-14T10:11:25.746Z,92.327881
2019-01-14T10:12:35.289Z,92.327881
2019-01-14T10:13:44.883Z,92.327881
2019-01-14T10:14:54.413Z,92.224121
2019-01-14T10:16:03.947Z,92.5354
2019-01-14T10:17:13.485Z,91.809082
2019-01-14T10:18:23.024Z,92.431641
2019-01-14T10:19:32.561Z,92.327881
2019-01-14T10:20:42.105Z,92.224121
2019-01-14T10:21:51.629Z,92.431641
2019-01-14T10:23:01.192Z,92.120361
2019-01-14T10:24:10.723Z,92.224121
2019-01-14T10:25:20.358Z,93.054199
2019-01-14T10:26:29.881Z,92.224121
2019-01-14T10:27:39.407Z,92.5354
2019-01-14T10:28:48.962Z,92.950439
2019-01-14T10:29:58.486Z,92.63916
2019-01-14T10:31:08.031Z,93.054199
2019-01-14T10:32:17.568Z,92.5354
2019-01-14T10:33:27.102Z,93.157959
2019-01-14T10:34:36.701Z,93.054199
2019-01-14T10:35:46.270Z,93.371582
2019-01-14T10:36:55.794Z,92.950439
2019-01-14T10:38:05.338Z,93.054199
2019-01-14T10:39:14.953Z,93.157959
2019-01-14T10:40:23.493Z,93.475342
2019-01-14T10:41:33.037Z,93.475342
2019-01-14T10:42:42.591Z,93.157959
2019-01-14T10:43:52.132Z,93.579102
2019-01-14T10:45:02.646Z,93.310547
2019-01-14T10:46:12.183Z,93.200684
2019-01-14T10:47:21.736Z,93.200684
2019-01-14T10:48:31.293Z,93.621826
2019-01-14T10:49:40.813Z,93.621826
2019-01-14T10:50:50.386Z,93.096924
2019-01-14T10:51:59.948Z,93.414307
2019-01-14T10:53:09.543Z,93.200684
2019-01-14T10:54:19.077Z,93.310547
2019-01-14T10:55:28.704Z,93.518066
2019-01-14T10:56:38.367Z,93.621826
2019-01-14T10:57:49.021Z,94.140625
2019-01-14T10:58:58.605Z,94.348145
2019-01-14T11:00:08.159Z,94.555664
2019-01-14T11:01:17.707Z,94.18335
2019-01-14T11:02:27.296Z,94.702148
2019-01-14T11:03:36.877Z,94.915771
2019-01-14T11:04:46.442Z,94.598389
2019-01-14T11:05:55.990Z,95.123291
2019-01-14T11:07:05.579Z,94.494629
2019-01-14T11:08:15.175Z,93.768311
2019-01-14T11:09:24.841Z,93.87207
2019-01-14T11:10:34.387Z,94.18335
2019-01-14T11:11:43.919Z,94.390869
2019-01-14T11:12:53.476Z,94.598389
2019-01-14T11:14:03.061Z,94.805908
2019-01-14T11:15:12.603Z,94.390869
2019-01-14T11:16:22.163Z,94.494629
2019-01-14T11:17:31.697Z,94.598389
2019-01-14T11:18:41.239Z,94.390869
2019-01-14T11:19:50.823Z,94.07959
2019-01-14T11:21:01.343Z,93.353271
2019-01-14T11:22:10.862Z,93.560791
2019-01-14T11:23:19.378Z,93.768311
2019-01-14T11:24:28.901Z,93.457031
2019-01-14T11:25:38.459Z,93.518066
2019-01-14T11:26:46.993Z,93.414307
2019-01-14T11:27:57.515Z,93.200684
2019-01-14T11:29:07.054Z,92.889404
2019-01-14T11:30:16.585Z,92.785645
2019-01-14T11:31:26.115Z,93.414307
2019-01-14T11:32:35.637Z,93.518066
2019-01-14T11:33:45.166Z,93.725586
2019-01-14T11:34:54.713Z,93.933105
2019-01-14T11:36:05.247Z,93.414307
2019-01-14T11:37:14.802Z,92.889404
2019-01-14T11:38:24.348Z,93.096924
2019-01-14T11:39:33.878Z,92.993164
2019-01-14T11:40:43.434Z,93.414307
2019-01-14T11:41:52.958Z,93.096924
2019-01-14T11:43:02.481Z,93.200684
2019-01-14T11:44:12.032Z,92.785645
2019-01-14T11:45:21.563Z,93.054199
2019-01-14T11:46:31.103Z,92.327881
2019-01-14T11:47:40.769Z,92.120361
2019-01-14T11:48:50.295Z,92.224121
2019-01-14T11:49:59.835Z,92.016602
2019-01-14T11:51:09.370Z,92.224121
2019-01-14T11:52:18.926Z,91.809082
2019-01-14T11:53:28.490Z,92.63916
2019-01-14T11:54:37.998Z,92.327881
2019-01-14T11:55:47.546Z,92.5354
2019-01-14T11:56:57.113Z,92.63916
2019-01-14T11:58:06.638Z,92.5354
2019-01-14T11:59:16.210Z,92.431641
2019-01-14T12:00:25.748Z,92.84668
2019-01-14T12:01:36.284Z,92.63916
2019-01-14T12:02:45.861Z,93.054199
2019-01-14T12:03:55.418Z,93.157959
2019-01-14T12:05:05.028Z,93.157959
2019-01-14T12:06:14.573Z,92.5354
2019-01-14T12:07:23.864Z,92.224121
2019-01-14T12:08:33.409Z,92.327881
2019-01-14T12:09:42.931Z,91.07666
2019-01-14T12:10:52.562Z,91.705322
2019-01-14T12:12:02.113Z,91.497803
2019-01-14T12:13:11.621Z,91.394043
2019-01-14T12:14:21.210Z,91.705322
2019-01-14T12:15:30.804Z,92.120361
2019-01-14T12:16:40.353Z,91.601562
2019-01-14T12:17:49.927Z,91.705322
2019-01-14T12:18:58.488Z,92.016602
2019-01-14T12:20:08.034Z,91.18042
2019-01-14T12:21:17.582Z,91.705322
2019-01-14T12:22:27.146Z,91.18042
2019-01-14T12:23:36.711Z,91.394043
2019-01-14T12:24:46.304Z,91.143799
2019-01-14T12:25:55.890Z,90.826416
2019-01-14T12:27:06.426Z,90.722656
2019-01-14T12:28:15.973Z,91.07666
2019-01-14T12:29:25.541Z,90.557861
2019-01-14T12:30:35.150Z,91.394043
2019-01-14T12:31:43.705Z,91.18042
2019-01-14T12:32:53.252Z,91.28418
2019-01-14T12:34:02.803Z,92.120361
2019-01-14T12:35:12.347Z,91.705322
2019-01-14T12:36:21.877Z,92.016602
2019-01-14T12:37:31.477Z,92.5354
2019-01-14T12:38:41.033Z,92.163086
2019-01-14T12:39:50.608Z,93.200684
2019-01-14T12:41:00.174Z,93.310547
2019-01-14T12:42:09.690Z,92.578125
2019-01-14T12:43:20.207Z,92.681885
2019-01-14T12:44:29.135Z,93.310547
2019-01-14T12:45:38.702Z,92.993164
2019-01-14T12:46:48.235Z,92.785645
2019-01-14T12:47:57.836Z,92.785645
2019-01-14T12:49:07.429Z,93.310547
2019-01-14T12:50:16.956Z,93.933105
2019-01-14T12:51:26.497Z,93.518066
2019-01-14T12:52:36.075Z,92.889404
2019-01-14T12:53:45.666Z,93.310547
2019-01-14T12:54:55.263Z,93.725586
2019-01-14T12:56:04.784Z,93.310547
2019-01-14T12:57:14.337Z,93.87207
2019-01-14T12:58:23.883Z,93.664551
2019-01-14T12:59:33.418Z,94.07959
2019-01-14T13:00:42.955Z,94.390869
2019-01-14T13:01:52.494Z,94.494629
2019-01-14T13:03:02.036Z,94.390869
2019-01-14T13:04:11.568Z,94.18335
2019-01-14T13:05:21.150Z,93.87207
2019-01-14T13:06:30.686Z,93.97583
2019-01-14T13:07:40.238Z,93.664551
2019-01-14T13:08:49.806Z,93.768311
2019-01-14T13:09:59.336Z,93.87207
2019-01-14T13:11:08.888Z,94.494629
2019-01-14T13:12:18.485Z,94.805908
2019-01-14T13:13:28.073Z,95.123291
2019-01-14T13:14:37.657Z,94.287109
2019-01-14T13:15:47.263Z,94.287109
2019-01-14T13:16:56.827Z,93.97583
2019-01-14T13:18:06.381Z,94.07959